createdAt,value
2023-05-25T00:01:16.629Z,4.85
2023-05-25T00:03:44.065Z,4.97
2023-05-25T00:06:11.098Z,4.20
2023-05-25T00:08:40.458Z,4.22
2023-05-25T00:11:07.274Z,4.22
2023-05-25T00:13:34.070Z,4.22
2023-05-25T00:16:01.025Z,4.63
2023-05-25T00:18:27.839Z,4.88
2023-05-25T00:20:54.722Z,4.10
2023-05-25T00:23:21.595Z,6.80
2023-05-25T00:25:48.441Z,6.75
2023-05-25T00:28:15.326Z,5.85
2023-05-25T00:30:42.096Z,5.35
2023-05-25T00:33:10.736Z,5.70
2023-05-25T00:35:37.704Z,4.72
2023-05-25T00:38:04.446Z,4.82
2023-05-25T00:40:31.350Z,4.80
2023-05-25T00:42:58.646Z,4.68
2023-05-25T00:45:25.582Z,3.88
2023-05-25T00:47:52.945Z,4.45
2023-05-25T00:50:21.950Z,4.13
2023-05-25T00:52:49.245Z,3.88
2023-05-25T00:55:16.352Z,3.47
2023-05-25T00:57:46.224Z,4.22
2023-05-25T01:00:13.867Z,3.35
2023-05-25T01:02:41.612Z,4.13
2023-05-25T01:05:09.030Z,4.40
2023-05-25T01:07:37.126Z,4.70
2023-05-25T01:10:08.109Z,3.33
2023-05-25T01:12:36.908Z,4.18
2023-05-25T01:15:04.457Z,4.30
2023-05-25T01:17:32.429Z,4.47
2023-05-25T01:20:09.640Z,4.22
2023-05-25T01:22:57.436Z,3.85
2023-05-25T01:25:37.044Z,4.15
2023-05-25T01:28:11.612Z,3.80
2023-05-25T01:30:38.468Z,4.03
2023-05-25T01:33:05.715Z,4.30
2023-05-25T01:35:32.605Z,4.45
2023-05-25T01:37:59.504Z,4.38
2023-05-25T01:40:27.180Z,4.20
2023-05-25T01:42:54.097Z,4.47
2023-05-25T01:45:20.948Z,4.43
2023-05-25T01:48:03.707Z,4.55
2023-05-25T01:50:34.625Z,5.00
2023-05-25T01:53:05.020Z,4.70
2023-05-25T01:55:35.404Z,4.43
2023-05-25T01:58:02.358Z,4.55
2023-05-25T02:00:31.997Z,4.65
2023-05-25T02:02:59.002Z,4.28
2023-05-25T02:05:26.898Z,4.32
2023-05-25T02:07:54.070Z,4.35
2023-05-25T02:10:21.196Z,4.82
2023-05-25T02:12:48.123Z,4.35
2023-05-25T02:15:15.983Z,4.32
2023-05-25T02:17:43.551Z,4.72
2023-05-25T02:20:11.597Z,5.00
2023-05-25T02:22:38.532Z,5.03
2023-05-25T02:25:05.938Z,4.63
2023-05-25T02:27:32.757Z,4.88
2023-05-25T02:29:59.613Z,6.35
2023-05-25T02:32:26.550Z,5.78
2023-05-25T02:34:53.500Z,5.53
2023-05-25T02:37:20.308Z,5.40
2023-05-25T02:39:47.229Z,5.85
2023-05-25T02:42:14.085Z,5.20
2023-05-25T02:44:41.098Z,6.13
2023-05-25T02:47:07.998Z,5.00
2023-05-25T02:49:34.990Z,5.13
2023-05-25T02:52:01.975Z,5.00
2023-05-25T02:54:28.914Z,6.03
2023-05-25T02:56:56.187Z,8.52
2023-05-25T02:59:25.139Z,5.55
2023-05-25T03:01:52.023Z,5.55
2023-05-25T03:04:19.049Z,6.03
2023-05-25T03:06:45.884Z,6.53
2023-05-25T03:09:12.811Z,6.50
2023-05-25T03:11:39.877Z,7.60
2023-05-25T03:14:06.721Z,7.25
2023-05-25T03:16:36.561Z,7.15
2023-05-25T03:19:05.694Z,6.38
2023-05-25T03:21:33.205Z,6.47
2023-05-25T03:24:00.166Z,6.63
2023-05-25T03:26:27.095Z,6.10
2023-05-25T03:28:53.945Z,5.68
2023-05-25T03:31:20.830Z,6.57
2023-05-25T03:33:47.680Z,6.65
2023-05-25T03:36:17.447Z,5.93
2023-05-25T03:38:44.720Z,6.10
2023-05-25T03:41:11.433Z,5.65
2023-05-25T03:43:38.227Z,6.57
2023-05-25T03:46:05.349Z,6.32
2023-05-25T03:48:32.161Z,7.20
2023-05-25T03:50:59.009Z,6.82
2023-05-25T03:53:26.059Z,7.38
2023-05-25T03:55:53.041Z,8.27
2023-05-25T03:58:19.887Z,11.45
2023-05-25T04:00:49.262Z,9.23
2023-05-25T04:03:16.612Z,10.05
2023-05-25T04:05:46.030Z,10.27
2023-05-25T04:08:24.240Z,10.40
2023-05-25T04:10:50.995Z,11.15
2023-05-25T04:13:17.842Z,11.15
2023-05-25T04:15:44.969Z,10.57
2023-05-25T04:18:12.142Z,12.85
2023-05-25T04:20:39.525Z,12.95
2023-05-25T04:23:06.442Z,12.45
2023-05-25T04:25:33.188Z,5.95
2023-05-25T04:28:00.844Z,6.35
2023-05-25T04:30:28.576Z,5.68
2023-05-25T04:32:57.670Z,6.03
2023-05-25T04:35:24.554Z,5.93
2023-05-25T04:37:51.775Z,8.98
2023-05-25T04:40:18.753Z,8.80
2023-05-25T04:42:45.540Z,9.40
2023-05-25T04:45:12.365Z,8.68
2023-05-25T04:47:41.455Z,9.70
2023-05-25T04:50:10.280Z,9.27
2023-05-25T04:52:37.576Z,9.23
2023-05-25T04:55:08.106Z,9.23
2023-05-25T04:57:35.207Z,7.50
2023-05-25T05:00:02.211Z,6.95
2023-05-25T05:02:29.263Z,7.10
2023-05-25T05:04:56.250Z,7.63
2023-05-25T05:07:23.235Z,8.68
2023-05-25T05:09:50.081Z,8.30
2023-05-25T05:12:16.913Z,7.25
2023-05-25T05:14:43.623Z,7.00
2023-05-25T05:17:10.684Z,7.63
2023-05-25T05:19:37.768Z,7.05
2023-05-25T05:22:04.818Z,6.50
2023-05-25T05:24:31.727Z,7.25
2023-05-25T05:26:59.317Z,6.57
2023-05-25T05:29:28.305Z,8.73
2023-05-25T05:31:56.740Z,8.68
2023-05-25T05:34:23.861Z,7.05
2023-05-25T05:36:58.089Z,6.10
2023-05-25T05:39:26.338Z,6.15
2023-05-25T05:41:54.001Z,6.18
2023-05-25T05:44:21.567Z,5.70
2023-05-25T05:46:48.643Z,6.25
2023-05-25T05:49:15.886Z,6.88
2023-05-25T05:51:42.983Z,5.80
2023-05-25T05:54:09.705Z,7.03
2023-05-25T05:56:36.588Z,6.63
2023-05-25T05:59:03.482Z,6.75
2023-05-25T06:01:30.337Z,7.35
2023-05-25T06:03:57.280Z,9.43
2023-05-25T06:06:24.169Z,8.63
2023-05-25T06:08:51.578Z,7.20
2023-05-25T06:11:18.571Z,7.70
2023-05-25T06:13:46.593Z,7.25
2023-05-25T06:16:13.766Z,5.47
2023-05-25T06:18:40.694Z,6.20
2023-05-25T06:21:07.531Z,8.65
2023-05-25T06:23:34.505Z,6.82
2023-05-25T06:26:07.373Z,6.15
2023-05-25T06:28:34.381Z,5.35
2023-05-25T06:31:01.228Z,5.30
2023-05-25T06:33:28.193Z,4.10
2023-05-25T06:35:58.773Z,4.72
2023-05-25T06:38:25.675Z,4.43
2023-05-25T06:40:52.520Z,4.10
2023-05-25T06:43:19.448Z,3.50
2023-05-25T06:45:46.644Z,4.38
2023-05-25T06:48:14.285Z,3.63
2023-05-25T06:50:42.608Z,3.60
2023-05-25T06:53:11.160Z,4.25
2023-05-25T06:55:38.141Z,3.90
2023-05-25T06:58:05.137Z,2.95
2023-05-25T07:00:32.370Z,3.03
2023-05-25T07:02:59.656Z,3.03
2023-05-25T07:05:27.245Z,2.72
2023-05-25T07:07:54.296Z,4.03
2023-05-25T07:10:21.156Z,3.45
2023-05-25T07:12:47.985Z,3.53
2023-05-25T07:15:16.191Z,4.00
2023-05-25T07:17:43.222Z,2.55
2023-05-25T07:20:10.812Z,2.53
2023-05-25T07:22:37.693Z,2.42
2023-05-25T07:25:04.981Z,2.35
2023-05-25T07:27:34.128Z,2.75
2023-05-25T07:30:01.135Z,2.85
2023-05-25T07:32:28.196Z,2.55
2023-05-25T07:34:55.127Z,2.55
2023-05-25T07:37:22.024Z,2.60
2023-05-25T07:39:48.974Z,2.47
2023-05-25T07:42:21.040Z,2.53
2023-05-25T07:44:49.040Z,2.92
2023-05-25T07:49:42.936Z,2.10
2023-05-25T07:52:10.521Z,2.22
2023-05-25T07:54:40.605Z,3.10
2023-05-25T07:57:08.320Z,2.45
2023-05-25T07:59:35.422Z,2.47
2023-05-25T08:02:02.804Z,2.58
2023-05-25T08:04:34.061Z,2.22
2023-05-25T08:07:01.745Z,2.75
2023-05-25T08:09:28.626Z,2.22
2023-05-25T08:12:07.805Z,2.28
2023-05-25T08:14:42.344Z,2.35
2023-05-25T08:17:09.154Z,3.65
2023-05-25T08:19:36.075Z,2.10
2023-05-25T08:22:03.074Z,2.42
2023-05-25T08:24:29.977Z,2.83
2023-05-25T08:26:56.810Z,2.22
2023-05-25T08:29:23.641Z,2.78
2023-05-25T08:31:51.383Z,2.33
2023-05-25T08:34:18.427Z,2.08
2023-05-25T08:36:45.929Z,2.22
2023-05-25T08:39:13.545Z,2.53
2023-05-25T08:41:45.250Z,2.47
2023-05-25T08:44:14.634Z,2.40
2023-05-25T08:46:41.737Z,2.92
2023-05-25T08:49:12.796Z,2.00
2023-05-25T08:51:43.107Z,1.98
2023-05-25T08:54:11.122Z,2.08
2023-05-25T08:59:35.948Z,1.95
2023-05-25T09:02:14.839Z,2.10
2023-05-25T09:04:42.681Z,1.75
2023-05-25T09:07:11.125Z,1.63
2023-05-25T09:09:39.056Z,2.70
2023-05-25T09:12:06.618Z,2.70
2023-05-25T09:14:34.264Z,2.50
2023-05-25T09:17:01.195Z,2.53
2023-05-25T09:19:28.045Z,2.40
2023-05-25T09:22:03.078Z,2.40
2023-05-25T09:24:41.597Z,2.60
2023-05-25T09:27:11.454Z,2.50
2023-05-25T09:29:38.335Z,2.70
2023-05-25T09:32:08.518Z,2.60
2023-05-25T09:34:35.612Z,2.40
2023-05-25T09:37:13.585Z,2.13
2023-05-25T09:39:41.928Z,2.30
2023-05-25T09:42:08.917Z,2.33
2023-05-25T09:44:35.995Z,2.05
2023-05-25T09:47:03.714Z,1.92
2023-05-25T09:49:30.524Z,2.00
2023-05-25T09:51:57.523Z,1.90
2023-05-25T09:54:24.363Z,1.80
2023-05-25T09:56:51.847Z,1.67
2023-05-25T09:59:18.819Z,1.25
2023-05-25T10:01:45.807Z,1.50
2023-05-25T10:04:16.434Z,1.35
2023-05-25T10:06:43.321Z,1.52
2023-05-25T10:09:10.233Z,1.23
2023-05-25T10:11:37.025Z,1.02
2023-05-25T10:14:06.958Z,1.50
2023-05-25T10:16:34.481Z,1.30
2023-05-25T10:19:02.039Z,1.20
2023-05-25T10:21:30.084Z,1.25
2023-05-25T10:26:29.100Z,1.50
2023-05-25T10:28:56.964Z,1.63
2023-05-25T10:31:28.508Z,1.38
2023-05-25T10:33:56.646Z,1.35
2023-05-25T10:38:51.825Z,1.45
2023-05-25T10:41:21.208Z,1.80
2023-05-25T10:43:48.326Z,1.60
2023-05-25T10:46:15.422Z,1.75
2023-05-25T10:48:49.220Z,2.13
2023-05-25T10:51:16.235Z,2.13
2023-05-25T10:53:46.962Z,2.53
2023-05-25T10:56:14.505Z,2.20
2023-05-25T10:58:43.851Z,2.30
2023-05-25T11:01:12.123Z,2.53
2023-05-25T11:03:45.292Z,2.33
2023-05-25T11:06:13.835Z,1.75
2023-05-25T11:08:56.035Z,2.15
2023-05-25T11:11:43.603Z,1.48
2023-05-25T11:14:30.655Z,1.85
2023-05-25T11:17:18.538Z,1.70
2023-05-25T11:19:50.672Z,1.70
2023-05-25T11:22:22.213Z,2.03
2023-05-25T11:24:52.701Z,1.88
2023-05-25T11:27:32.289Z,1.98
2023-05-25T11:29:59.603Z,1.52
2023-05-25T11:32:26.997Z,2.08
2023-05-25T11:34:54.199Z,2.15
2023-05-25T11:37:22.815Z,1.83
2023-05-25T11:39:50.173Z,2.20
2023-05-25T11:42:17.143Z,2.60
2023-05-25T11:44:44.129Z,3.70
2023-05-25T11:47:30.220Z,3.38
2023-05-25T11:49:58.556Z,2.35
2023-05-25T11:52:25.657Z,2.40
2023-05-25T11:54:53.514Z,2.28
2023-05-25T11:57:27.550Z,2.22
2023-05-25T12:00:00.372Z,2.15
2023-05-25T12:02:27.259Z,3.50
2023-05-25T12:04:55.590Z,3.63
2023-05-25T12:07:22.527Z,2.97
2023-05-25T12:09:49.443Z,3.95
2023-05-25T12:12:16.287Z,2.95
2023-05-25T12:14:49.716Z,2.75
2023-05-25T12:17:21.310Z,3.28
2023-05-25T12:19:48.194Z,3.35
2023-05-25T12:22:14.949Z,2.47
2023-05-25T12:24:41.791Z,3.17
2023-05-25T12:27:18.473Z,2.90
2023-05-25T12:29:48.745Z,2.83
2023-05-25T12:32:16.429Z,3.70
2023-05-25T12:34:43.412Z,6.80
2023-05-25T12:37:20.433Z,5.40
2023-05-25T12:39:47.544Z,5.15
2023-05-25T12:42:16.051Z,4.15
2023-05-25T12:44:43.291Z,4.70
2023-05-25T12:47:21.441Z,3.53
2023-05-25T12:49:54.904Z,3.22
2023-05-25T12:52:41.343Z,2.83
2023-05-25T12:55:30.271Z,2.60
2023-05-25T12:58:06.967Z,2.88
2023-05-25T13:00:38.242Z,3.15
2023-05-25T13:03:07.943Z,4.68
2023-05-25T13:05:37.037Z,3.78
2023-05-25T13:08:04.897Z,4.20
2023-05-25T13:10:32.941Z,3.90
2023-05-25T13:13:00.956Z,3.70
2023-05-25T13:15:28.087Z,3.58
2023-05-25T13:17:55.155Z,2.65
2023-05-25T13:20:23.648Z,3.15
2023-05-25T13:22:51.465Z,3.28
2023-05-25T13:25:18.402Z,3.22
2023-05-25T13:27:46.602Z,2.83
2023-05-25T13:30:13.941Z,3.60
2023-05-25T13:32:40.870Z,2.88
2023-05-25T13:35:08.171Z,2.70
2023-05-25T13:37:34.984Z,2.75
2023-05-25T13:40:01.946Z,3.10
2023-05-25T13:42:28.953Z,3.35
2023-05-25T13:44:56.145Z,2.75
2023-05-25T13:47:23.125Z,3.30
2023-05-25T13:49:50.161Z,3.05
2023-05-25T13:52:17.142Z,2.42
2023-05-25T13:54:44.084Z,2.63
2023-05-25T13:57:11.330Z,2.58
2023-05-25T13:59:38.750Z,2.95
2023-05-25T14:02:06.044Z,3.17
2023-05-25T14:04:32.959Z,2.40
2023-05-25T14:07:00.197Z,2.80
2023-05-25T14:09:27.244Z,2.58
2023-05-25T14:11:54.797Z,2.95
2023-05-25T14:14:31.304Z,2.33
2023-05-25T14:17:00.588Z,2.22
2023-05-25T14:22:11.154Z,2.45
2023-05-25T14:24:40.815Z,2.72
2023-05-25T14:27:07.809Z,2.88
2023-05-25T14:29:34.866Z,3.03
2023-05-25T14:32:01.844Z,2.83
2023-05-25T14:34:29.466Z,2.70
2023-05-25T14:36:56.738Z,2.30
2023-05-25T14:39:23.634Z,2.47
2023-05-25T14:41:50.766Z,2.22
2023-05-25T14:44:18.016Z,3.20
2023-05-25T14:46:45.191Z,2.67
2023-05-25T14:49:13.753Z,2.40
2023-05-25T14:51:40.702Z,3.33
2023-05-25T14:54:08.050Z,3.25
2023-05-25T14:56:35.232Z,3.90
2023-05-25T14:59:02.117Z,3.33
2023-05-25T15:01:31.982Z,3.28
2023-05-25T15:03:59.115Z,3.05
2023-05-25T15:06:26.147Z,2.90
2023-05-25T15:08:52.893Z,3.40
2023-05-25T15:11:19.735Z,2.40
2023-05-25T15:13:46.705Z,3.15
2023-05-25T15:16:14.871Z,2.95
2023-05-25T15:18:41.964Z,2.40
2023-05-25T15:21:09.167Z,2.58
2023-05-25T15:23:36.057Z,2.80
2023-05-25T15:26:04.675Z,2.42
2023-05-25T15:28:31.734Z,2.50
2023-05-25T15:31:00.869Z,2.33
2023-05-25T15:33:43.652Z,2.35
2023-05-25T15:36:16.797Z,2.50
2023-05-25T15:38:44.631Z,2.15
2023-05-25T15:41:12.936Z,2.60
2023-05-25T15:43:39.884Z,3.65
2023-05-25T15:46:06.864Z,2.88
2023-05-25T15:48:33.780Z,2.50
2023-05-25T15:51:00.987Z,2.70
2023-05-25T15:53:27.826Z,2.60
2023-05-25T15:55:54.671Z,2.88
2023-05-25T15:58:21.719Z,2.60
2023-05-25T16:00:48.566Z,2.60
2023-05-25T16:03:15.505Z,2.83
2023-05-25T16:05:42.432Z,2.05
2023-05-25T16:08:09.273Z,1.58
2023-05-25T16:10:36.090Z,1.98
2023-05-25T16:13:02.889Z,1.88
2023-05-25T16:15:29.825Z,24.05
2023-05-25T16:17:56.671Z,3.50
2023-05-25T16:20:23.495Z,2.97
2023-05-25T16:22:50.301Z,5.28
2023-05-25T16:25:17.257Z,4.75
2023-05-25T16:27:44.338Z,3.55
2023-05-25T16:30:13.363Z,4.75
2023-05-25T16:32:40.643Z,2.80
2023-05-25T16:35:07.678Z,2.50
2023-05-25T16:37:34.539Z,2.53
2023-05-25T16:40:01.379Z,2.55
2023-05-25T16:42:28.221Z,2.65
2023-05-25T16:44:54.956Z,2.10
2023-05-25T16:47:21.954Z,2.03
2023-05-25T16:49:49.114Z,2.13
2023-05-25T16:52:15.949Z,2.92
2023-05-25T16:54:42.861Z,3.28
2023-05-25T16:57:12.116Z,4.32
2023-05-25T16:59:39.465Z,7.97
2023-05-25T17:02:06.810Z,7.47
2023-05-25T17:04:33.871Z,5.45
2023-05-25T17:07:00.849Z,4.95
2023-05-25T17:09:27.748Z,4.43
2023-05-25T17:11:59.516Z,5.00
2023-05-25T17:14:26.448Z,4.18
2023-05-25T17:16:53.406Z,3.60
2023-05-25T17:19:20.288Z,3.78
2023-05-25T17:21:47.846Z,4.47
2023-05-25T17:24:14.652Z,3.70
2023-05-25T17:26:41.579Z,4.13
2023-05-25T17:29:08.552Z,4.90
2023-05-25T17:31:35.684Z,4.50
2023-05-25T17:34:02.725Z,4.53
2023-05-25T17:36:29.635Z,4.63
2023-05-25T17:38:56.485Z,5.72
2023-05-25T17:41:23.364Z,5.05
2023-05-25T17:43:50.256Z,7.00
2023-05-25T17:46:17.740Z,7.00
2023-05-25T17:48:45.801Z,6.13
2023-05-25T17:51:12.715Z,6.05
2023-05-25T17:53:40.107Z,6.05
2023-05-25T17:56:10.267Z,8.77
2023-05-25T17:58:37.471Z,10.38
2023-05-25T18:01:04.942Z,4.82
2023-05-25T18:03:32.020Z,4.05
2023-05-25T18:05:59.281Z,3.67
2023-05-25T18:08:26.622Z,3.47
2023-05-25T18:10:53.476Z,3.95
2023-05-25T18:13:20.576Z,3.95
2023-05-25T18:15:47.570Z,6.68
2023-05-25T18:18:16.668Z,4.30
2023-05-25T18:20:43.703Z,3.30
2023-05-25T18:23:10.835Z,5.93
2023-05-25T18:25:37.749Z,8.25
2023-05-25T18:28:04.651Z,10.38
2023-05-25T18:30:31.534Z,9.15
2023-05-25T18:32:58.608Z,7.93
2023-05-25T18:35:25.437Z,8.57
2023-05-25T18:37:52.279Z,9.63
2023-05-25T18:40:19.171Z,6.30
2023-05-25T18:42:46.216Z,6.28
2023-05-25T18:45:13.110Z,7.22
2023-05-25T18:47:40.290Z,5.50
2023-05-25T18:50:07.370Z,6.72
2023-05-25T18:52:34.203Z,6.53
2023-05-25T18:55:01.562Z,5.07
2023-05-25T18:57:28.932Z,5.07
2023-05-25T18:59:55.854Z,4.63
2023-05-25T19:02:22.765Z,4.68
2023-05-25T19:04:49.732Z,21.77
2023-05-25T19:07:16.862Z,22.50
2023-05-25T19:09:43.817Z,11.93
2023-05-25T19:12:10.960Z,6.10
2023-05-25T19:14:37.957Z,5.80
2023-05-25T19:17:05.012Z,6.15
2023-05-25T19:19:31.997Z,6.40
2023-05-25T19:21:58.936Z,7.28
2023-05-25T19:24:25.973Z,6.43
2023-05-25T19:26:52.938Z,6.97
2023-05-25T19:29:19.943Z,6.13
2023-05-25T19:31:46.844Z,4.88
2023-05-25T19:34:13.924Z,7.13
2023-05-25T19:36:40.983Z,6.65
2023-05-25T19:39:07.912Z,6.57
2023-05-25T19:41:37.748Z,7.10
2023-05-25T19:44:04.631Z,7.05
2023-05-25T19:46:31.721Z,6.32
2023-05-25T19:48:59.150Z,6.40
2023-05-25T19:51:26.379Z,6.18
2023-05-25T19:53:53.917Z,7.30
2023-05-25T19:56:21.353Z,6.18
2023-05-25T19:58:48.254Z,6.70
2023-05-25T20:01:15.165Z,7.85
2023-05-25T20:03:44.194Z,7.95
2023-05-25T20:06:11.147Z,6.03
2023-05-25T20:08:38.064Z,7.13
2023-05-25T20:11:05.009Z,6.55
2023-05-25T20:13:31.913Z,6.45
2023-05-25T20:15:58.889Z,6.55
2023-05-25T20:18:25.751Z,6.35
2023-05-25T20:20:52.725Z,6.57
2023-05-25T20:23:19.584Z,6.13
2023-05-25T20:25:46.745Z,5.82
2023-05-25T20:28:13.730Z,5.97
2023-05-25T20:30:40.794Z,4.38
2023-05-25T20:33:07.780Z,4.32
2023-05-25T20:35:36.558Z,6.13
2023-05-25T20:38:03.465Z,5.65
2023-05-25T20:40:31.337Z,5.80
2023-05-25T20:42:58.326Z,6.70
2023-05-25T20:45:25.328Z,7.03
2023-05-25T20:48:02.345Z,6.70
2023-05-25T20:50:29.340Z,5.28
2023-05-25T20:52:56.812Z,4.10
2023-05-25T20:55:23.773Z,4.10
2023-05-25T20:57:51.125Z,4.20
2023-05-25T21:00:18.725Z,5.03
2023-05-25T21:02:45.616Z,5.65
2023-05-25T21:05:12.742Z,4.95
2023-05-25T21:07:39.693Z,5.45
2023-05-25T21:10:07.085Z,4.60
2023-05-25T21:12:34.381Z,4.22
2023-05-25T21:15:01.273Z,5.07
2023-05-25T21:17:28.467Z,6.32
2023-05-25T21:19:55.864Z,4.63
2023-05-25T21:22:22.777Z,4.78
2023-05-25T21:24:50.244Z,5.30
2023-05-25T21:27:17.955Z,7.38
2023-05-25T21:29:44.736Z,6.80
2023-05-25T21:32:11.534Z,4.00
2023-05-25T21:34:38.625Z,4.70
2023-05-25T21:37:05.882Z,5.95
2023-05-25T21:39:32.847Z,7.40
2023-05-25T21:41:59.996Z,6.95
2023-05-25T21:44:27.354Z,6.20
2023-05-25T21:46:54.275Z,6.07
2023-05-25T21:49:21.117Z,7.18
2023-05-25T21:51:48.018Z,6.55
2023-05-25T21:54:15.018Z,8.57
2023-05-25T21:56:41.853Z,10.13
2023-05-25T21:59:08.657Z,6.22
2023-05-25T22:01:35.665Z,4.93
2023-05-25T22:04:02.687Z,10.18
2023-05-25T22:06:29.585Z,8.85
2023-05-25T22:08:56.436Z,5.18
2023-05-25T22:11:24.580Z,5.65
2023-05-25T22:13:51.498Z,9.45
2023-05-25T22:16:18.364Z,8.95
2023-05-25T22:18:45.179Z,6.85
2023-05-25T22:21:11.970Z,4.30
2023-05-25T22:23:38.880Z,4.50
2023-05-25T22:26:05.838Z,4.72
2023-05-25T22:28:32.718Z,4.22
2023-05-25T22:30:59.600Z,4.18
2023-05-25T22:33:26.550Z,5.22
2023-05-25T22:35:53.294Z,4.40
2023-05-25T22:38:20.042Z,5.00
2023-05-25T22:40:47.989Z,4.05
2023-05-25T22:43:15.105Z,4.40
2023-05-25T22:45:41.895Z,5.22
2023-05-25T22:48:09.001Z,5.40
2023-05-25T22:50:36.348Z,5.82
2023-05-25T22:53:03.352Z,5.85
2023-05-25T22:55:30.241Z,6.10
2023-05-25T22:57:57.135Z,4.95
2023-05-25T23:00:24.067Z,4.75
2023-05-25T23:02:50.945Z,4.40
2023-05-25T23:05:17.833Z,5.10
2023-05-25T23:07:45.024Z,5.75
2023-05-25T23:10:11.964Z,4.50
2023-05-25T23:12:38.844Z,4.20
2023-05-25T23:15:08.152Z,4.18
2023-05-25T23:17:35.219Z,5.28
2023-05-25T23:20:02.279Z,4.80
2023-05-25T23:22:29.167Z,5.55
2023-05-25T23:24:56.266Z,4.95
2023-05-25T23:27:23.088Z,6.50
2023-05-25T23:29:49.995Z,4.00
2023-05-25T23:32:16.886Z,4.13
2023-05-25T23:34:43.831Z,3.50
2023-05-25T23:37:10.931Z,3.55
2023-05-25T23:39:38.080Z,3.28
2023-05-25T23:42:04.935Z,3.50
2023-05-25T23:44:32.101Z,3.65
2023-05-25T23:46:59.121Z,4.35
2023-05-25T23:49:26.013Z,3.22
2023-05-25T23:51:53.423Z,4.05
2023-05-25T23:54:20.263Z,3.22
2023-05-25T23:56:47.210Z,2.75
2023-05-25T23:59:15.417Z,3.47
